• Join FlightAware (Why Join?)
  • Login
  • US Flag 
01:44PM EST


 

Airport Tracker/Info


-or-


 

Live Flight TrackerFlight Track Log ✈ SWA1903 ✈ 10-May-2013 ✈ KDTW - KPHX

Flight Track Log - Related Links

Times and Time Zones

All times are in EDT time to prevent confusion due to time zone crossing. See the SWA1903 flight status page for this flight to view local times or setup timezone preferences in your user account.

Time Position Orientation Groundspeed Altitude Reporting Facility
EDT Latitude Longitude Course Direction KTS MPH feet Rate Location/Type
10:00AM 42.2036 -83.3556 223° Southwest 149 171 1,300  Level Cleveland Center
10:01AM 42.1844 -83.3797 223° Southwest 187 215 2,200 2,040 Climbing Cleveland Center
10:02AM 42.1411 -83.4394 226° Southwest 239 275 4,600 2,700 Climbing Cleveland Center
10:03AM 42.1375 -83.5067 266° West 251 289 7,400 2,820 Climbing Cleveland Center
10:04AM 42.1747 -83.5925 300° West 264 304 10,100 2,220 Climbing Cleveland Center
10:04AM 42.1806 -83.6150 289° West 270 311 10,500 1,260 Climbing Cleveland Center
10:05AM 42.2181 -83.6925 303° West 334 384 11,400 1,260 Climbing Cleveland Center
10:05AM 42.2256 -83.7183 291° West 337 388 11,800 1,140 Climbing Cleveland Center
10:06AM 42.2744 -83.8331 300° West 361 415 13,000 1,380 Climbing Cleveland Center
10:07AM 42.3214 -83.9447 300° West 355 409 14,600 2,100 Climbing Cleveland Center
10:08AM 42.3722 -84.0628 300° West 355 409 17,300 2,640 Climbing Cleveland Center
10:09AM 42.4203 -84.1892 297° West 360 414 19,900 2,160 Climbing Cleveland Center
10:10AM 42.4283 -84.3306 274° West 365 420 21,700 1,800 Climbing Cleveland Center
10:11AM 42.4317 -84.4769 272° West 376 433 23,500 2,400 Climbing Cleveland Center
10:12AM 42.4372 -84.6236 273° West 390 449 26,600 3,000 Climbing Cleveland Center
10:12AM 42.4397 -84.6681 274° West 390 449 27,300 2,280 Climbing Chicago Center
10:13AM 42.4425 -84.8039 272° West 367 422 29,600 1,800 Climbing Chicago Center
10:14AM 42.4464 -84.9367 272° West 356 410 31,100 1,020 Climbing Chicago Center
10:15AM 42.4483 -85.0811 271° West 377 434 31,800 1,440 Climbing Chicago Center
10:16AM 42.4531 -85.2572 272° West 389 448 34,100 1,680 Climbing Chicago Center
10:18AM 42.4556 -85.3969 271° West 376 433 35,300 900 Climbing Chicago Center
10:19AM 42.4569 -85.5397 271° West 378 435 36,000 300 Climbing Chicago Center
10:20AM 42.4606 -85.6806 272° West 376 433 36,000  Level Chicago Center
10:21AM 42.4622 -85.8236 271° West 378 435 36,000  Level Chicago Center
10:22AM 42.4631 -85.9664 271° West 379 436 36,000  Level Chicago Center
10:23AM 42.4636 -86.1117 270° West 383 441 36,000  Level Chicago Center
10:24AM 42.4442 -86.2792 261° West 377 434 36,000  Level Chicago Center
10:25AM 42.4244 -86.4197 259° West 380 437 36,000  Level Chicago Center
10:26AM 42.3897 -86.5517 250° West 376 433 36,000  Level Chicago Center
10:27AM 42.3556 -86.6842 251° West 375 432 36,000  Level Chicago Center
10:28AM 42.3192 -86.8350 252° West 377 434 36,000  Level Chicago Center
10:29AM 42.2856 -86.9689 251° West 379 436 36,000  Level Chicago Center
10:30AM 42.2478 -87.1014 249° West 382 440 36,000  Level Chicago Center
10:31AM 42.2128 -87.2378 251° West 387 445 36,000  Level Chicago Center
10:32AM 42.1778 -87.3736 251° West 388 447 36,000  Level Chicago Center
10:33AM 42.1344 -87.5375 250° West 392 451 36,000  Level Chicago Center
10:34AM 42.0983 -87.6739 250° West 392 451 36,000  Level Chicago Center
10:35AM 42.0625 -87.8086 250° West 389 448 36,000  Level Chicago Center
10:36AM 42.0269 -87.9436 251° West 387 445 36,000  Level Chicago Center
10:37AM 41.9903 -88.0786 250° West 389 448 36,000  Level Chicago Center
10:38AM 41.9464 -88.2403 250° West 389 448 36,000  Level Chicago Center
10:39AM 41.9103 -88.3764 250° West 392 451 36,000 240 Level Chicago Center
10:40AM 41.8742 -88.5092 250° West 386 444 36,600 540 Climbing Chicago Center
10:41AM 41.8358 -88.6478 250° West 398 458 37,200 660 Climbing Chicago Center
10:42AM 41.7969 -88.7864 249° West 402 463 38,000 360 Climbing Chicago Center
10:43AM 41.7522 -88.9497 250° West 395 455 38,000  Level Chicago Center
10:44AM 41.7133 -89.0869 249° West 396 456 38,000  Level Chicago Center
10:45AM 41.6742 -89.2231 249° West 395 455 38,000  Level Chicago Center
10:46AM 41.6361 -89.3600 250° West 396 456 38,000  Level Chicago Center
10:47AM 41.5986 -89.4942 250° West 391 450 38,000  Level Chicago Center
10:48AM 41.5519 -89.6561 249° West 391 450 38,000  Level Chicago Center
10:50AM 41.5142 -89.7897 249° West 388 447 38,000  Level Chicago Center
10:51AM 41.4744 -89.9228 248° West 388 447 38,000  Level Chicago Center
10:52AM 41.4344 -90.0578 248° West 391 450 38,000  Level Chicago Center
10:53AM 41.3986 -90.1925 251° West 391 450 38,000  Level Chicago Center
10:54AM 41.3475 -90.3567 248° West 402 463 38,000  Level Chicago Center
10:55AM 41.3083 -90.4919 249° West 399 459 38,000  Level Chicago Center
10:56AM 41.2678 -90.6281 248° West 398 458 38,000  Level Chicago Center
10:57AM 41.2275 -90.7631 248° West 396 456 38,000  Level Chicago Center
10:58AM 41.1869 -90.9003 249° West 399 459 38,000  Level Chicago Center
10:59AM 41.1375 -91.0636 248° West 399 459 38,000  Level Chicago Center
11:00AM 41.0964 -91.1992 248° West 399 459 38,000  Level Chicago Center
11:01AM 41.0539 -91.3353 248° West 400 460 38,000  Level Chicago Center
11:02AM 41.0122 -91.4767 249° West 404 465 38,000  Level Chicago Center
11:03AM 40.9672 -91.6056 245° Southwest 397 457 38,000  Level Chicago Center
11:04AM 40.9261 -91.7419 248° West 402 463 38,000  Level Chicago Center
11:05AM 40.8750 -91.9033 247° West 402 463 38,000  Level Chicago Center
11:06AM 40.8339 -92.0397 248° West 404 465 38,000  Level Chicago Center
11:07AM 40.7925 -92.1756 248° West 405 466 38,000  Level Chicago Center
11:08AM 40.7503 -92.3081 247° West 400 460 38,000  Level Chicago Center
11:09AM 40.7086 -92.4428 248° West 403 464 38,000  Level Chicago Center
11:10AM 40.6578 -92.6019 247° West 401 461 38,000  Level Chicago Center
11:11AM 40.6158 -92.7331 247° West 398 458 38,000  Level Chicago Center
11:12AM 40.5911 -92.8064 246° West 396 456 38,000  Level Kansas City Center
11:13AM 40.5425 -92.9550 247° West 395 455 38,000  Level Kansas City Center
11:14AM 40.4961 -93.0989 247° West 397 457 38,000  Level Kansas City Center
11:15AM 40.4533 -93.2317 247° West 400 460 38,000  Level Kansas City Center
11:16AM 40.4100 -93.3625 247° West 397 457 38,000  Level Kansas City Center
11:17AM 40.3669 -93.4958 247° West 399 459 38,000  Level Kansas City Center
11:18AM 40.3222 -93.6278 246° West 401 461 38,000  Level Kansas City Center
11:19AM 40.2681 -93.7878 246° West 404 465 38,000  Level Kansas City Center
11:20AM 40.2247 -93.9197 247° West 400 460 38,000  Level Kansas City Center
11:21AM 40.1808 -94.0544 247° West 404 465 38,000  Level Kansas City Center
11:22AM 40.1306 -94.1936 245° Southwest 406 467 38,000  Level Kansas City Center
11:23AM 40.0869 -94.3219 246° West 404 465 38,000  Level Kansas City Center
11:24AM 40.0356 -94.4728 246° West 408 470 38,000  Level Kansas City Center
11:25AM 39.9914 -94.6017 246° West 408 470 38,000  Level Kansas City Center
11:26AM 39.9403 -94.7522 246° West 408 470 38,000  Level Kansas City Center
11:27AM 39.8961 -94.8778 245° Southwest 401 461 38,000  Level Kansas City Center
11:28AM 39.8458 -95.0239 246° West 398 458 38,000  Level Kansas City Center
11:29AM 39.8022 -95.1489 246° West 396 456 38,000  Level Kansas City Center
11:30AM 39.7503 -95.2942 245° Southwest 399 459 38,000  Level Kansas City Center
11:31AM 39.7061 -95.4200 246° West 402 463 38,000  Level Kansas City Center
11:33AM 39.6542 -95.5686 246° West 406 467 38,000  Level Kansas City Center
11:34AM 39.6078 -95.6964 245° Southwest 411 473 38,000  Level Kansas City Center
11:35AM 39.5539 -95.8464 245° Southwest 412 474 38,000  Level Kansas City Center
11:36AM 39.5081 -95.9744 245° Southwest 412 474 38,000  Level Kansas City Center
11:37AM 39.4536 -96.1242 245° Southwest 412 474 38,000  Level Kansas City Center
11:38AM 39.4075 -96.2511 245° Southwest 411 473 38,000  Level Kansas City Center
11:39AM 39.3583 -96.3828 244° Southwest 409 471 38,000  Level Kansas City Center
11:40AM 39.3064 -96.5267 245° Southwest 410 472 38,000  Level Kansas City Center
11:41AM 39.2511 -96.6750 244° Southwest 410 472 38,000  Level Kansas City Center
11:42AM 39.2042 -96.8014 244° Southwest 410 472 38,000  Level Kansas City Center
11:43AM 39.1489 -96.9519 245° Southwest 415 478 38,000  Level Kansas City Center
11:44AM 39.1006 -97.0800 244° Southwest 416 479 38,000  Level Kansas City Center
11:45AM 39.0450 -97.2306 245° Southwest 417 480 38,000  Level Kansas City Center
11:46AM 38.9967 -97.3586 244° Southwest 417 480 38,000  Level Kansas City Center
11:47AM 38.9414 -97.5050 244° Southwest 418 481 38,000  Level Kansas City Center
11:48AM 38.8911 -97.6358 244° Southwest 416 479 38,000  Level Kansas City Center
11:49AM 38.8331 -97.7847 243° Southwest 418 481 38,000  Level Kansas City Center
11:50AM 38.7883 -97.9058 245° Southwest 421 484 38,000  Level Kansas City Center
11:51AM 38.7358 -98.0397 243° Southwest 422 486 38,000  Level Kansas City Center
11:52AM 38.6736 -98.2014 244° Southwest 424 488 38,000  Level Kansas City Center
11:53AM 38.6222 -98.3364 244° Southwest 425 489 38,000  Level Kansas City Center
11:54AM 38.5697 -98.4717 244° Southwest 426 490 38,000  Level Kansas City Center
11:55AM 38.5167 -98.6058 243° Southwest 426 490 38,000  Level Kansas City Center
11:56AM 38.4636 -98.7400 243° Southwest 425 489 38,000  Level Kansas City Center
11:57AM 38.4100 -98.8733 243° Southwest 425 489 38,000  Level Kansas City Center
11:58AM 38.3256 -99.0175 233° Southwest 428 493 38,000  Level Kansas City Center
11:59AM 38.2453 -99.1275 227° Southwest 427 491 38,000  Level Kansas City Center
12:00PM 38.1650 -99.2383 227° Southwest 427 491 38,000  Level Kansas City Center
12:01PM 38.0842 -99.3486 227° Southwest 427 491 38,000  Level Kansas City Center
12:03PM 38.0022 -99.4589 227° Southwest 427 491 38,000  Level Kansas City Center
12:04PM 37.9053 -99.5925 227° Southwest 428 493 38,000  Level Kansas City Center
12:05PM 37.8275 -99.6989 227° Southwest 429 494 38,000  Level Kansas City Center
12:06PM 37.7361 -99.8242 227° Southwest 432 497 38,000  Level Kansas City Center
12:07PM 37.6717 -99.9442 236° Southwest 435 501 38,000  Level Kansas City Center
12:08PM 37.6253 -100.0764 246° West 432 497 38,000  Level Kansas City Center
12:09PM 37.5714 -100.2261 246° West 423 487 38,000  Level Kansas City Center
12:10PM 37.5250 -100.3567 246° West 422 486 38,000  Level Kansas City Center
12:11PM 37.4689 -100.5086 245° Southwest 425 489 38,000  Level Kansas City Center
12:12PM 37.4214 -100.6389 245° Southwest 424 488 38,000  Level Kansas City Center
12:13PM 37.3653 -100.7911 245° Southwest 425 489 38,000  Level Kansas City Center
12:14PM 37.3175 -100.9222 245° Southwest 427 491 38,000  Level Kansas City Center
12:15PM 37.2608 -101.0753 245° Southwest 429 494 38,000  Level Kansas City Center
12:16PM 37.2117 -101.2064 245° Southwest 432 497 38,000  Level Kansas City Center
12:17PM 37.1631 -101.3378 245° Southwest 432 497 38,000  Level Kansas City Center
12:18PM 37.1228 -101.4492 246° West 434 499 38,000  Level Albuquerque Center
12:19PM 37.0642 -101.6006 244° Southwest 431 496 38,000  Level Albuquerque Center
12:20PM 37.0289 -101.7378 252° West 432 497 38,000  Level Albuquerque Center
12:21PM 36.9978 -101.8781 255° West 435 501 38,000  Level Albuquerque Center
12:22PM 36.9592 -102.0375 253° West 431 496 38,000  Level Albuquerque Center
12:23PM 36.9261 -102.1744 253° West 430 495 38,000  Level Albuquerque Center
12:24PM 36.8878 -102.3328 253° West 428 493 38,000  Level Albuquerque Center
12:25PM 36.8536 -102.4597 251° West 425 489 38,000  Level Albuquerque Center
12:26PM 36.8147 -102.6197 253° West 433 498 38,000  Level Albuquerque Center
12:27PM 36.7750 -102.7806 253° West 433 498 38,000  Level Albuquerque Center
12:28PM 36.7411 -102.9153 253° West 428 493 38,000  Level Albuquerque Center
12:29PM 36.7058 -103.0517 252° West 430 495 38,000  Level Albuquerque Center
12:30PM 36.6664 -103.2117 253° West 432 497 38,000  Level Albuquerque Center
12:31PM 36.6317 -103.3447 252° West 429 494 38,000  Level Albuquerque Center
12:32PM 36.5950 -103.4867 252° West 427 491 38,000  Level Albuquerque Center
12:33PM 36.5522 -103.6511 252° West 426 490 38,000  Level Albuquerque Center
12:34PM 36.5150 -103.7936 252° West 429 494 38,000  Level Albuquerque Center
12:35PM 36.4789 -103.9358 253° West 428 493 38,000  Level Albuquerque Center
12:36PM 36.4414 -104.0767 252° West 427 491 38,000  Level Albuquerque Center
12:37PM 36.4042 -104.2131 251° West 421 484 38,000  Level Albuquerque Center
12:38PM 36.3661 -104.3508 251° West 419 482 38,000  Level Albuquerque Center
12:39PM 36.3217 -104.5169 252° West 429 494 38,000  Level Albuquerque Center
12:40PM 36.2853 -104.6542 252° West 423 487 38,000  Level Albuquerque Center
12:41PM 36.2478 -104.7981 252° West 432 497 38,000  Level Albuquerque Center
12:43PM 36.2069 -104.9417 251° West 438 504 38,000  Level Albuquerque Center
12:44PM 36.1692 -105.0806 251° West 429 494 38,000  Level Albuquerque Center
12:45PM 36.1297 -105.2217 251° West 430 495 38,000  Level Albuquerque Center
12:46PM 36.0850 -105.3850 251° West 428 493 38,000  Level Albuquerque Center
12:47PM 36.0453 -105.5253 251° West 429 494 38,000  Level Albuquerque Center
12:48PM 36.0081 -105.6550 251° West 430 495 38,000  Level Albuquerque Center
12:49PM 35.9700 -105.7947 251° West 430 495 38,000  Level Albuquerque Center
12:50PM 35.9186 -105.9272 244° Southwest 430 495 38,000  Level Albuquerque Center
12:51PM 35.8450 -106.0811 239° Southwest 435 501 38,000  Level Albuquerque Center
12:52PM 35.7811 -106.2128 239° Southwest 437 503 38,000  Level Albuquerque Center
12:53PM 35.7217 -106.3383 240° Southwest 441 507 38,000  Level Albuquerque Center
12:54PM 35.6547 -106.4839 241° Southwest 438 504 38,000  Level Albuquerque Center
12:55PM 35.6236 -106.6106 253° West 435 501 38,000  Level Albuquerque Center
12:56PM 35.5872 -106.7511 252° West 435 501 38,000  Level Albuquerque Center
12:57PM 35.5408 -106.9217 252° West 440 506 38,000  Level Albuquerque Center
12:58PM 35.5036 -107.0647 252° West 443 510 38,000  Level Albuquerque Center
12:59PM 35.4617 -107.2142 251° West 443 510 38,000  Level Albuquerque Center
01:00PM 35.4247 -107.3531 252° West 446 513 38,000  Level Albuquerque Center
01:01PM 35.3808 -107.5153 252° West 447 514 38,000  Level Albuquerque Center
01:02PM 35.3419 -107.6542 251° West 448 516 38,000  Level Albuquerque Center
01:03PM 35.2972 -107.8161 251° West 448 516 38,000  Level Albuquerque Center
01:04PM 35.2589 -107.9544 251° West 448 516 38,000  Level Albuquerque Center
01:05PM 35.2144 -108.1144 251° West 445 512 38,000  Level Albuquerque Center
01:06PM 35.1753 -108.2503 251° West 443 510 38,000 -420 Level Albuquerque Center
01:07PM 35.1303 -108.4122 251° West 447 514 37,200 -540 Descending Albuquerque Center
01:08PM 35.0886 -108.5564 251° West 460 529 37,000 -120 Descending Albuquerque Center
01:09PM 35.0467 -108.7028 251° West 469 540 37,000  Level Albuquerque Center
01:10PM 35.0006 -108.8669 251° West 460 529 37,000  Level Albuquerque Center
01:11PM 34.9611 -109.0036 251° West 450 518 37,000 -540 Level Albuquerque Center
01:13PM 34.9142 -109.1650 251° West 449 517 36,000 -540 Descending Albuquerque Center
01:14PM 34.8725 -109.3056 250° West 456 525 36,000  Level Albuquerque Center
01:15PM 34.8250 -109.4697 251° West 458 527 36,000  Level Albuquerque Center
01:16PM 34.7819 -109.6044 249° West 450 518 36,000  Level Albuquerque Center
01:17PM 34.7339 -109.7703 251° West 459 528 36,000  Level Albuquerque Center
01:18PM 34.6889 -109.9111 249° West 464 534 36,000  Level Albuquerque Center
01:19PM 34.6369 -110.0469 245° Southwest 463 533 36,000 -1,260 Level Albuquerque Center
01:20PM 34.5808 -110.2119 248° West 471 542 33,400 -2,280 Descending Albuquerque Center
01:21PM 34.5269 -110.3400 243° Southwest 448 516 31,400 -2,040 Descending Albuquerque Center
01:22PM 34.4758 -110.4831 247° West 440 506 29,200 -2,100 Descending Albuquerque Center
01:23PM 34.4269 -110.6186 246° West 441 507 27,100 -1,980 Descending Albuquerque Center
01:24PM 34.3758 -110.7517 245° Southwest 438 504 25,200 -1,800 Descending Albuquerque Center
01:25PM 34.2844 -110.8933 232° Southwest 446 513 23,500 -2,100 Descending Albuquerque Center
01:26PM 34.2006 -110.9953 225° Southwest 436 502 20,900 -2,280 Descending Albuquerque Center
01:27PM 34.1222 -111.0958 227° Southwest 420 483 18,800 -1,680 Descending Albuquerque Center
01:28PM 34.0528 -111.1867 227° Southwest 378 435 17,500 -1,560 Descending Albuquerque Center
01:29PM 33.9856 -111.2728 227° Southwest 358 412 15,600 -1,740 Descending Albuquerque Center
01:30PM 33.9208 -111.3553 227° Southwest 344 396 14,000 -1,620 Descending Albuquerque Center
01:31PM 33.8553 -111.4294 223° Southwest 327 376 12,300 -1,680 Descending Albuquerque Center
01:32PM 33.7706 -111.5003 215° Southwest 309 356 10,600 -1,440 Descending Albuquerque Center
01:33PM 33.7036 -111.5581 216° Southwest 299 344 9,400 -900 Descending Albuquerque Center
01:34PM 33.6392 -111.6000 208° Southwest 265 305 8,800 -840 Descending Albuquerque Center
01:35PM 33.5769 -111.6308 202° Southwest 245 282 7,700 -1,140 Descending Albuquerque Center
01:36PM 33.5150 -111.6603 202° Southwest 240 276 6,500 -1,140 Descending Albuquerque Center
01:37PM 33.4764 -111.7183 231° Southwest 244 281 5,400 -1,020 Descending Albuquerque Center
01:38PM 33.4511 -111.7869 246° West 230 265 4,400 -960 Descending Albuquerque Center
01:39PM 33.4417 -111.8644 262° West 207 238 3,500 -1,020 Descending Albuquerque Center
01:40PM 33.4425 -111.9233 271° West 189 217 2,300 -960 Descending Albuquerque Center
01:41PM 33.4417 -111.9739 269° West 172 198 1,600 -720 Descending Albuquerque Center
01:43PM 33.4343 -112.0116 270° West  Level Estimated
01:50PM 33.4343 -112.0116 90° East  Level Estimated